sensor_id;sensor_type;location;lat;lon;timestamp;temperature;humidity
68801;SHT31;55784;50.734;7.086;2023-03-21T00:01:16;11.41;70.10
68801;SHT31;55784;50.734;7.086;2023-03-21T00:03:42;11.47;70.04
68801;SHT31;55784;50.734;7.086;2023-03-21T00:06:10;11.48;69.92
68801;SHT31;55784;50.734;7.086;2023-03-21T00:08:37;11.45;70.24
68801;SHT31;55784;50.734;7.086;2023-03-21T00:11:05;11.42;70.12
68801;SHT31;55784;50.734;7.086;2023-03-21T00:13:31;11.45;70.22
68801;SHT31;55784;50.734;7.086;2023-03-21T00:16:11;11.45;70.26
68801;SHT31;55784;50.734;7.086;2023-03-21T00:18:43;11.48;70.08
68801;SHT31;55784;50.734;7.086;2023-03-21T00:21:12;11.41;70.29
68801;SHT31;55784;50.734;7.086;2023-03-21T00:23:40;11.42;70.23
68801;SHT31;55784;50.734;7.086;2023-03-21T00:26:05;11.44;70.29
68801;SHT31;55784;50.734;7.086;2023-03-21T00:28:35;11.40;70.36
68801;SHT31;55784;50.734;7.086;2023-03-21T00:31:01;11.34;70.59
68801;SHT31;55784;50.734;7.086;2023-03-21T00:33:27;11.30;70.82
68801;SHT31;55784;50.734;7.086;2023-03-21T00:35:52;11.32;70.82
68801;SHT31;55784;50.734;7.086;2023-03-21T00:38:18;11.34;70.94
68801;SHT31;55784;50.734;7.086;2023-03-21T00:40:45;11.34;70.87
68801;SHT31;55784;50.734;7.086;2023-03-21T00:43:10;11.32;70.98
68801;SHT31;55784;50.734;7.086;2023-03-21T00:45:43;11.27;71.10
68801;SHT31;55784;50.734;7.086;2023-03-21T00:48:09;11.31;71.11
68801;SHT31;55784;50.734;7.086;2023-03-21T00:50:36;11.34;71.17
68801;SHT31;55784;50.734;7.086;2023-03-21T00:53:01;11.30;71.17
68801;SHT31;55784;50.734;7.086;2023-03-21T00:55:26;11.35;71.34
68801;SHT31;55784;50.734;7.086;2023-03-21T00:57:52;11.30;71.24
68801;SHT31;55784;50.734;7.086;2023-03-21T01:00:17;11.30;71.24
68801;SHT31;55784;50.734;7.086;2023-03-21T01:02:43;11.28;71.31
68801;SHT31;55784;50.734;7.086;2023-03-21T01:05:27;11.30;71.30
68801;SHT31;55784;50.734;7.086;2023-03-21T01:08:12;11.34;71.35
68801;SHT31;55784;50.734;7.086;2023-03-21T01:10:43;11.30;71.57
68801;SHT31;55784;50.734;7.086;2023-03-21T01:13:10;11.24;71.52
68801;SHT31;55784;50.734;7.086;2023-03-21T01:15:41;11.24;71.54
68801;SHT31;55784;50.734;7.086;2023-03-21T01:18:07;11.27;71.48
68801;SHT31;55784;50.734;7.086;2023-03-21T01:20:33;11.27;71.41
68801;SHT31;55784;50.734;7.086;2023-03-21T01:22:58;11.19;71.82
68801;SHT31;55784;50.734;7.086;2023-03-21T01:25:23;11.14;71.91
68801;SHT31;55784;50.734;7.086;2023-03-21T01:27:49;11.14;71.98
68801;SHT31;55784;50.734;7.086;2023-03-21T01:30:14;11.11;72.11
68801;SHT31;55784;50.734;7.086;2023-03-21T01:32:40;11.04;72.45
68801;SHT31;55784;50.734;7.086;2023-03-21T01:35:05;11.10;72.44
68801;SHT31;55784;50.734;7.086;2023-03-21T01:37:31;11.07;72.35
68801;SHT31;55784;50.734;7.086;2023-03-21T01:39:56;11.00;72.56
68801;SHT31;55784;50.734;7.086;2023-03-21T01:42:21;11.04;72.49
68801;SHT31;55784;50.734;7.086;2023-03-21T01:47:16;11.11;72.32
68801;SHT31;55784;50.734;7.086;2023-03-21T01:49:44;11.11;72.27
68801;SHT31;55784;50.734;7.086;2023-03-21T01:52:14;11.16;72.27
68801;SHT31;55784;50.734;7.086;2023-03-21T01:54:42;11.09;72.37
68801;SHT31;55784;50.734;7.086;2023-03-21T01:57:12;11.17;72.25
68801;SHT31;55784;50.734;7.086;2023-03-21T01:59:42;11.19;72.37
68801;SHT31;55784;50.734;7.086;2023-03-21T02:02:12;11.16;72.40
68801;SHT31;55784;50.734;7.086;2023-03-21T02:04:39;11.17;72.56
68801;SHT31;55784;50.734;7.086;2023-03-21T02:07:11;11.16;72.50
68801;SHT31;55784;50.734;7.086;2023-03-21T02:09:41;11.10;72.52
68801;SHT31;55784;50.734;7.086;2023-03-21T02:12:08;11.07;72.86
68801;SHT31;55784;50.734;7.086;2023-03-21T02:14:35;11.03;72.98
68801;SHT31;55784;50.734;7.086;2023-03-21T02:17:27;11.03;73.11
68801;SHT31;55784;50.734;7.086;2023-03-21T02:28:10;10.86;73.65
68801;SHT31;55784;50.734;7.086;2023-03-21T02:31:12;10.87;73.77
68801;SHT31;55784;50.734;7.086;2023-03-21T02:33:53;10.86;73.81
68801;SHT31;55784;50.734;7.086;2023-03-21T02:42:16;10.90;73.87
68801;SHT31;55784;50.734;7.086;2023-03-21T02:44:47;10.89;73.89
68801;SHT31;55784;50.734;7.086;2023-03-21T02:47:24;10.83;74.03
68801;SHT31;55784;50.734;7.086;2023-03-21T02:49:57;10.84;74.11
68801;SHT31;55784;50.734;7.086;2023-03-21T02:52:29;10.83;74.26
68801;SHT31;55784;50.734;7.086;2023-03-21T02:54:56;10.77;74.40
68801;SHT31;55784;50.734;7.086;2023-03-21T02:57:22;10.77;74.56
68801;SHT31;55784;50.734;7.086;2023-03-21T02:59:48;10.70;74.78
68801;SHT31;55784;50.734;7.086;2023-03-21T03:02:16;10.62;74.97
68801;SHT31;55784;50.734;7.086;2023-03-21T03:04:43;10.52;75.26
68801;SHT31;55784;50.734;7.086;2023-03-21T03:07:32;10.49;75.38
68801;SHT31;55784;50.734;7.086;2023-03-21T03:16:11;10.36;75.94
68801;SHT31;55784;50.734;7.086;2023-03-21T03:18:54;10.35;76.22
68801;SHT31;55784;50.734;7.086;2023-03-21T03:23:56;10.36;76.19
68801;SHT31;55784;50.734;7.086;2023-03-21T03:26:28;10.36;76.27
68801;SHT31;55784;50.734;7.086;2023-03-21T03:28:58;10.32;76.46
68801;SHT31;55784;50.734;7.086;2023-03-21T03:31:30;10.34;76.50
68801;SHT31;55784;50.734;7.086;2023-03-21T03:34:00;10.31;76.68
68801;SHT31;55784;50.734;7.086;2023-03-21T03:36:30;10.35;76.64
68801;SHT31;55784;50.734;7.086;2023-03-21T03:39:02;10.36;76.63
68801;SHT31;55784;50.734;7.086;2023-03-21T03:41:29;10.45;76.62
68801;SHT31;55784;50.734;7.086;2023-03-21T03:43:58;10.46;76.51
68801;SHT31;55784;50.734;7.086;2023-03-21T03:46:29;10.52;76.35
68801;SHT31;55784;50.734;7.086;2023-03-21T03:49:03;10.57;76.21
68801;SHT31;55784;50.734;7.086;2023-03-21T03:51:43;10.59;76.12
68801;SHT31;55784;50.734;7.086;2023-03-21T03:54:13;10.59;76.01
68801;SHT31;55784;50.734;7.086;2023-03-21T03:56:39;10.65;75.99
68801;SHT31;55784;50.734;7.086;2023-03-21T03:59:05;10.67;75.97
68801;SHT31;55784;50.734;7.086;2023-03-21T04:01:32;10.66;76.07
68801;SHT31;55784;50.734;7.086;2023-03-21T04:03:58;10.67;76.10
68801;SHT31;55784;50.734;7.086;2023-03-21T04:06:25;10.66;76.08
68801;SHT31;55784;50.734;7.086;2023-03-21T04:08:53;10.57;76.40
68801;SHT31;55784;50.734;7.086;2023-03-21T04:11:21;10.52;76.73
68801;SHT31;55784;50.734;7.086;2023-03-21T04:13:47;10.55;76.83
68801;SHT31;55784;50.734;7.086;2023-03-21T04:16:12;10.55;76.77
68801;SHT31;55784;50.734;7.086;2023-03-21T04:18:39;10.57;76.79
68801;SHT31;55784;50.734;7.086;2023-03-21T04:21:10;10.57;76.76
68801;SHT31;55784;50.734;7.086;2023-03-21T04:23:38;10.59;76.64
68801;SHT31;55784;50.734;7.086;2023-03-21T04:26:04;10.62;76.58
68801;SHT31;55784;50.734;7.086;2023-03-21T04:28:30;10.66;76.47
68801;SHT31;55784;50.734;7.086;2023-03-21T04:30:56;10.67;76.39
68801;SHT31;55784;50.734;7.086;2023-03-21T04:33:24;10.70;76.30
68801;SHT31;55784;50.734;7.086;2023-03-21T04:35:52;10.72;76.27
68801;SHT31;55784;50.734;7.086;2023-03-21T04:38:24;10.69;76.30
68801;SHT31;55784;50.734;7.086;2023-03-21T04:40:51;10.66;76.42
68801;SHT31;55784;50.734;7.086;2023-03-21T04:43:16;10.59;76.44
68801;SHT31;55784;50.734;7.086;2023-03-21T04:45:42;10.52;76.75
68801;SHT31;55784;50.734;7.086;2023-03-21T04:48:10;10.46;77.01
68801;SHT31;55784;50.734;7.086;2023-03-21T04:50:38;10.46;77.14
68801;SHT31;55784;50.734;7.086;2023-03-21T04:53:03;10.45;77.22
68801;SHT31;55784;50.734;7.086;2023-03-21T04:55:29;10.48;77.20
68801;SHT31;55784;50.734;7.086;2023-03-21T04:57:56;10.50;77.16
68801;SHT31;55784;50.734;7.086;2023-03-21T05:00:21;10.52;77.08
68801;SHT31;55784;50.734;7.086;2023-03-21T05:02:47;10.55;76.95
68801;SHT31;55784;50.734;7.086;2023-03-21T05:05:13;10.59;76.91
68801;SHT31;55784;50.734;7.086;2023-03-21T05:07:39;10.60;76.85
68801;SHT31;55784;50.734;7.086;2023-03-21T05:10:06;10.66;76.83
68801;SHT31;55784;50.734;7.086;2023-03-21T05:12:32;10.66;76.81
68801;SHT31;55784;50.734;7.086;2023-03-21T05:15:02;10.69;76.68
68801;SHT31;55784;50.734;7.086;2023-03-21T05:17:27;10.70;76.71
68801;SHT31;55784;50.734;7.086;2023-03-21T05:19:53;10.73;76.64
68801;SHT31;55784;50.734;7.086;2023-03-21T05:22:21;10.72;76.56
68801;SHT31;55784;50.734;7.086;2023-03-21T05:24:52;10.72;76.55
68801;SHT31;55784;50.734;7.086;2023-03-21T05:27:21;10.75;76.60
68801;SHT31;55784;50.734;7.086;2023-03-21T05:30:08;10.75;76.62
68801;SHT31;55784;50.734;7.086;2023-03-21T05:32:34;10.73;76.55
68801;SHT31;55784;50.734;7.086;2023-03-21T05:34:59;10.75;76.55
68801;SHT31;55784;50.734;7.086;2023-03-21T05:37:25;10.76;76.48
68801;SHT31;55784;50.734;7.086;2023-03-21T05:39:51;10.76;76.66
68801;SHT31;55784;50.734;7.086;2023-03-21T05:42:17;10.79;76.55
68801;SHT31;55784;50.734;7.086;2023-03-21T05:44:45;10.80;76.50
68801;SHT31;55784;50.734;7.086;2023-03-21T05:47:15;10.84;76.42
68801;SHT31;55784;50.734;7.086;2023-03-21T05:49:40;10.81;76.43
68801;SHT31;55784;50.734;7.086;2023-03-21T05:52:06;10.80;76.51
68801;SHT31;55784;50.734;7.086;2023-03-21T05:54:31;10.87;76.52
68801;SHT31;55784;50.734;7.086;2023-03-21T05:56:57;10.97;76.39
68801;SHT31;55784;50.734;7.086;2023-03-21T05:59:22;11.01;76.19
68801;SHT31;55784;50.734;7.086;2023-03-21T06:01:48;11.03;76.11
68801;SHT31;55784;50.734;7.086;2023-03-21T06:04:13;11.04;76.09
68801;SHT31;55784;50.734;7.086;2023-03-21T06:06:39;11.11;75.99
68801;SHT31;55784;50.734;7.086;2023-03-21T06:09:04;11.13;75.80
68801;SHT31;55784;50.734;7.086;2023-03-21T06:11:32;11.19;75.68
68801;SHT31;55784;50.734;7.086;2023-03-21T06:13:58;11.23;75.55
68801;SHT31;55784;50.734;7.086;2023-03-21T06:16:24;11.19;75.63
68801;SHT31;55784;50.734;7.086;2023-03-21T06:18:49;11.23;75.20
68801;SHT31;55784;50.734;7.086;2023-03-21T06:21:15;11.31;75.10
68801;SHT31;55784;50.734;7.086;2023-03-21T06:23:40;11.26;75.26
68801;SHT31;55784;50.734;7.086;2023-03-21T06:26:06;11.30;75.16
68801;SHT31;55784;50.734;7.086;2023-03-21T06:28:31;11.30;75.24
68801;SHT31;55784;50.734;7.086;2023-03-21T06:30:57;11.35;75.42
68801;SHT31;55784;50.734;7.086;2023-03-21T06:33:23;11.44;75.31
68801;SHT31;55784;50.734;7.086;2023-03-21T06:35:54;11.50;75.08
68801;SHT31;55784;50.734;7.086;2023-03-21T06:38:20;11.60;74.65
68801;SHT31;55784;50.734;7.086;2023-03-21T06:40:46;11.64;74.33
68801;SHT31;55784;50.734;7.086;2023-03-21T06:43:12;11.60;74.42
68801;SHT31;55784;50.734;7.086;2023-03-21T06:45:38;11.65;74.33
68801;SHT31;55784;50.734;7.086;2023-03-21T06:48:04;11.68;74.54
68801;SHT31;55784;50.734;7.086;2023-03-21T06:50:29;11.70;74.44
68801;SHT31;55784;50.734;7.086;2023-03-21T06:52:55;11.70;74.50
68801;SHT31;55784;50.734;7.086;2023-03-21T06:55:21;11.75;74.30
68801;SHT31;55784;50.734;7.086;2023-03-21T06:57:51;11.77;74.41
68801;SHT31;55784;50.734;7.086;2023-03-21T07:00:17;11.86;74.07
68801;SHT31;55784;50.734;7.086;2023-03-21T07:02:42;11.92;74.20
68801;SHT31;55784;50.734;7.086;2023-03-21T07:05:08;11.96;74.11
68801;SHT31;55784;50.734;7.086;2023-03-21T07:07:33;12.03;73.92
68801;SHT31;55784;50.734;7.086;2023-03-21T07:09:58;12.11;73.68
68801;SHT31;55784;50.734;7.086;2023-03-21T07:12:24;12.18;73.58
68801;SHT31;55784;50.734;7.086;2023-03-21T07:14:49;12.12;73.90
68801;SHT31;55784;50.734;7.086;2023-03-21T07:17:14;12.16;74.06
68801;SHT31;55784;50.734;7.086;2023-03-21T07:19:40;12.23;74.27
68801;SHT31;55784;50.734;7.086;2023-03-21T07:22:05;12.16;74.97
68801;SHT31;55784;50.734;7.086;2023-03-21T07:24:30;12.01;75.81
68801;SHT31;55784;50.734;7.086;2023-03-21T07:26:56;12.02;76.16
68801;SHT31;55784;50.734;7.086;2023-03-21T07:29:22;12.02;77.14
68801;SHT31;55784;50.734;7.086;2023-03-21T07:31:49;11.93;77.46
68801;SHT31;55784;50.734;7.086;2023-03-21T07:34:14;11.96;78.09
68801;SHT31;55784;50.734;7.086;2023-03-21T07:36:41;11.95;78.48
68801;SHT31;55784;50.734;7.086;2023-03-21T07:39:07;11.83;79.08
68801;SHT31;55784;50.734;7.086;2023-03-21T07:41:32;11.96;79.49
68801;SHT31;55784;50.734;7.086;2023-03-21T07:43:57;11.82;80.47
68801;SHT31;55784;50.734;7.086;2023-03-21T07:46:23;11.92;81.32
68801;SHT31;55784;50.734;7.086;2023-03-21T07:48:48;11.92;82.38
68801;SHT31;55784;50.734;7.086;2023-03-21T07:51:14;11.92;82.57
68801;SHT31;55784;50.734;7.086;2023-03-21T07:53:39;11.86;82.55
68801;SHT31;55784;50.734;7.086;2023-03-21T07:56:12;11.88;83.09
68801;SHT31;55784;50.734;7.086;2023-03-21T07:58:37;11.93;83.36
68801;SHT31;55784;50.734;7.086;2023-03-21T08:01:03;11.88;83.43
68801;SHT31;55784;50.734;7.086;2023-03-21T08:03:28;11.83;83.65
68801;SHT31;55784;50.734;7.086;2023-03-21T08:05:55;11.81;83.11
68801;SHT31;55784;50.734;7.086;2023-03-21T08:08:20;11.71;83.71
68801;SHT31;55784;50.734;7.086;2023-03-21T08:10:45;11.81;83.99
68801;SHT31;55784;50.734;7.086;2023-03-21T08:13:11;11.85;84.08
68801;SHT31;55784;50.734;7.086;2023-03-21T08:15:37;11.78;83.93
68801;SHT31;55784;50.734;7.086;2023-03-21T08:18:06;11.77;84.11
68801;SHT31;55784;50.734;7.086;2023-03-21T08:20:31;11.77;84.00
68801;SHT31;55784;50.734;7.086;2023-03-21T08:22:57;11.72;84.38
68801;SHT31;55784;50.734;7.086;2023-03-21T08:25:22;11.81;84.35
68801;SHT31;55784;50.734;7.086;2023-03-21T08:27:48;11.72;85.03
68801;SHT31;55784;50.734;7.086;2023-03-21T08:30:16;11.82;84.67
68801;SHT31;55784;50.734;7.086;2023-03-21T08:32:42;11.82;84.71
68801;SHT31;55784;50.734;7.086;2023-03-21T08:35:10;11.92;84.77
68801;SHT31;55784;50.734;7.086;2023-03-21T08:37:38;11.92;84.52
68801;SHT31;55784;50.734;7.086;2023-03-21T08:40:04;11.95;84.68
68801;SHT31;55784;50.734;7.086;2023-03-21T08:42:36;11.89;84.47
68801;SHT31;55784;50.734;7.086;2023-03-21T08:45:01;11.91;84.56
68801;SHT31;55784;50.734;7.086;2023-03-21T08:47:27;11.95;84.63
68801;SHT31;55784;50.734;7.086;2023-03-21T08:49:52;11.96;84.91
68801;SHT31;55784;50.734;7.086;2023-03-21T08:52:17;11.93;84.52
68801;SHT31;55784;50.734;7.086;2023-03-21T08:54:43;12.01;84.59
68801;SHT31;55784;50.734;7.086;2023-03-21T08:57:09;12.06;84.68
68801;SHT31;55784;50.734;7.086;2023-03-21T08:59:35;12.18;84.52
68801;SHT31;55784;50.734;7.086;2023-03-21T09:02:01;12.11;84.34
68801;SHT31;55784;50.734;7.086;2023-03-21T09:04:26;12.06;85.11
68801;SHT31;55784;50.734;7.086;2023-03-21T09:06:51;11.92;85.81
68801;SHT31;55784;50.734;7.086;2023-03-21T09:09:17;12.05;85.66
68801;SHT31;55784;50.734;7.086;2023-03-21T09:11:42;12.09;85.51
68801;SHT31;55784;50.734;7.086;2023-03-21T09:14:08;11.99;86.79
68801;SHT31;55784;50.734;7.086;2023-03-21T09:16:34;12.02;87.07
68801;SHT31;55784;50.734;7.086;2023-03-21T09:19:00;12.12;86.82
68801;SHT31;55784;50.734;7.086;2023-03-21T09:21:27;12.19;86.26
68801;SHT31;55784;50.734;7.086;2023-03-21T09:23:53;12.18;86.20
68801;SHT31;55784;50.734;7.086;2023-03-21T09:26:21;12.19;86.66
68801;SHT31;55784;50.734;7.086;2023-03-21T09:28:48;12.19;86.53
68801;SHT31;55784;50.734;7.086;2023-03-21T09:31:15;12.21;86.53
68801;SHT31;55784;50.734;7.086;2023-03-21T09:33:46;12.15;86.54
68801;SHT31;55784;50.734;7.086;2023-03-21T09:36:12;12.15;86.33
68801;SHT31;55784;50.734;7.086;2023-03-21T09:38:42;12.16;85.80
68801;SHT31;55784;50.734;7.086;2023-03-21T09:41:33;12.09;85.88
68801;SHT31;55784;50.734;7.086;2023-03-21T09:47:19;11.98;85.64
68801;SHT31;55784;50.734;7.086;2023-03-21T09:49:48;11.93;85.55
68801;SHT31;55784;50.734;7.086;2023-03-21T09:52:40;11.96;85.70
68801;SHT31;55784;50.734;7.086;2023-03-21T09:55:16;11.91;85.55
68801;SHT31;55784;50.734;7.086;2023-03-21T09:57:46;12.03;85.29
68801;SHT31;55784;50.734;7.086;2023-03-21T10:00:21;11.96;85.23
68801;SHT31;55784;50.734;7.086;2023-03-21T10:02:51;12.01;85.68
68801;SHT31;55784;50.734;7.086;2023-03-21T10:05:26;11.99;85.55
68801;SHT31;55784;50.734;7.086;2023-03-21T10:07:56;12.05;85.49
68801;SHT31;55784;50.734;7.086;2023-03-21T10:10:39;12.06;85.85
68801;SHT31;55784;50.734;7.086;2023-03-21T10:13:22;12.15;85.72
68801;SHT31;55784;50.734;7.086;2023-03-21T10:15:49;12.21;85.26
68801;SHT31;55784;50.734;7.086;2023-03-21T10:18:23;12.34;85.40
68801;SHT31;55784;50.734;7.086;2023-03-21T10:20:50;12.32;84.47
68801;SHT31;55784;50.734;7.086;2023-03-21T10:23:18;12.29;84.81
68801;SHT31;55784;50.734;7.086;2023-03-21T10:25:50;12.11;84.64
68801;SHT31;55784;50.734;7.086;2023-03-21T10:28:25;12.28;84.28
68801;SHT31;55784;50.734;7.086;2023-03-21T10:30:52;12.34;84.14
68801;SHT31;55784;50.734;7.086;2023-03-21T10:33:32;12.40;83.53
68801;SHT31;55784;50.734;7.086;2023-03-21T10:36:02;12.44;83.48
68801;SHT31;55784;50.734;7.086;2023-03-21T10:38:29;12.37;84.21
68801;SHT31;55784;50.734;7.086;2023-03-21T10:40:54;12.30;84.31
68801;SHT31;55784;50.734;7.086;2023-03-21T10:43:31;12.43;83.72
68801;SHT31;55784;50.734;7.086;2023-03-21T10:46:06;12.28;83.50
68801;SHT31;55784;50.734;7.086;2023-03-21T10:48:36;12.37;82.79
68801;SHT31;55784;50.734;7.086;2023-03-21T10:51:05;12.39;83.47
68801;SHT31;55784;50.734;7.086;2023-03-21T10:53:36;12.33;82.95
68801;SHT31;55784;50.734;7.086;2023-03-21T10:56:06;12.36;82.84
68801;SHT31;55784;50.734;7.086;2023-03-21T10:58:36;12.40;83.15
68801;SHT31;55784;50.734;7.086;2023-03-21T11:01:06;12.50;83.02
68801;SHT31;55784;50.734;7.086;2023-03-21T11:03:38;12.52;82.96
68801;SHT31;55784;50.734;7.086;2023-03-21T11:08:40;13.07;82.39
68801;SHT31;55784;50.734;7.086;2023-03-21T11:11:19;13.14;81.70
68801;SHT31;55784;50.734;7.086;2023-03-21T11:13:45;13.29;80.88
68801;SHT31;55784;50.734;7.086;2023-03-21T11:16:31;13.31;80.57
68801;SHT31;55784;50.734;7.086;2023-03-21T11:19:02;13.24;80.77
68801;SHT31;55784;50.734;7.086;2023-03-21T11:21:36;13.17;80.43
68801;SHT31;55784;50.734;7.086;2023-03-21T11:24:02;12.91;81.23
68801;SHT31;55784;50.734;7.086;2023-03-21T11:26:37;12.88;81.84
68801;SHT31;55784;50.734;7.086;2023-03-21T11:29:24;12.93;81.65
68801;SHT31;55784;50.734;7.086;2023-03-21T11:31:50;12.91;81.72
68801;SHT31;55784;50.734;7.086;2023-03-21T11:34:25;12.90;82.11
68801;SHT31;55784;50.734;7.086;2023-03-21T11:36:57;13.04;81.59
68801;SHT31;55784;50.734;7.086;2023-03-21T11:39:34;12.88;81.80
68801;SHT31;55784;50.734;7.086;2023-03-21T11:42:01;12.54;82.19
68801;SHT31;55784;50.734;7.086;2023-03-21T11:44:33;12.74;82.27
68801;SHT31;55784;50.734;7.086;2023-03-21T11:46:59;12.47;82.93
68801;SHT31;55784;50.734;7.086;2023-03-21T11:49:25;12.50;83.01
68801;SHT31;55784;50.734;7.086;2023-03-21T11:54:52;12.54;83.93
68801;SHT31;55784;50.734;7.086;2023-03-21T12:00:38;12.67;83.36
68801;SHT31;55784;50.734;7.086;2023-03-21T12:03:31;12.60;83.26
68801;SHT31;55784;50.734;7.086;2023-03-21T12:06:02;12.74;83.30
68801;SHT31;55784;50.734;7.086;2023-03-21T12:11:21;12.72;83.43
68801;SHT31;55784;50.734;7.086;2023-03-21T12:23:45;13.01;82.25
68801;SHT31;55784;50.734;7.086;2023-03-21T12:26:27;13.22;81.89
68801;SHT31;55784;50.734;7.086;2023-03-21T12:34:29;13.08;81.58
68801;SHT31;55784;50.734;7.086;2023-03-21T12:37:16;13.10;81.75
68801;SHT31;55784;50.734;7.086;2023-03-21T12:39:47;13.27;81.73
68801;SHT31;55784;50.734;7.086;2023-03-21T12:42:38;13.25;81.91
68801;SHT31;55784;50.734;7.086;2023-03-21T12:45:31;13.19;82.14
68801;SHT31;55784;50.734;7.086;2023-03-21T12:48:21;13.25;81.55
68801;SHT31;55784;50.734;7.086;2023-03-21T12:50:50;13.42;81.54
68801;SHT31;55784;50.734;7.086;2023-03-21T12:56:18;13.38;81.80
68801;SHT31;55784;50.734;7.086;2023-03-21T12:58:56;13.62;81.56
68801;SHT31;55784;50.734;7.086;2023-03-21T13:01:23;13.69;80.88
68801;SHT31;55784;50.734;7.086;2023-03-21T13:06:37;13.73;81.50
68801;SHT31;55784;50.734;7.086;2023-03-21T13:09:13;13.65;81.28
68801;SHT31;55784;50.734;7.086;2023-03-21T13:11:41;13.86;81.03
68801;SHT31;55784;50.734;7.086;2023-03-21T13:14:25;14.02;80.22
68801;SHT31;55784;50.734;7.086;2023-03-21T13:19:38;14.31;79.50
68801;SHT31;55784;50.734;7.086;2023-03-21T13:25:04;14.45;79.20
68801;SHT31;55784;50.734;7.086;2023-03-21T13:27:33;14.64;78.60
68801;SHT31;55784;50.734;7.086;2023-03-21T13:30:16;14.71;78.16
68801;SHT31;55784;50.734;7.086;2023-03-21T13:32:44;14.70;77.94
68801;SHT31;55784;50.734;7.086;2023-03-21T13:37:52;14.78;77.86
68801;SHT31;55784;50.734;7.086;2023-03-21T13:40:24;14.57;78.20
68801;SHT31;55784;50.734;7.086;2023-03-21T13:42:55;14.80;77.96
68801;SHT31;55784;50.734;7.086;2023-03-21T13:45:27;14.87;78.30
68801;SHT31;55784;50.734;7.086;2023-03-21T13:47:56;14.63;78.19
68801;SHT31;55784;50.734;7.086;2023-03-21T13:50:24;14.77;77.98
68801;SHT31;55784;50.734;7.086;2023-03-21T13:53:10;14.68;77.66
68801;SHT31;55784;50.734;7.086;2023-03-21T13:55:41;14.68;78.53
68801;SHT31;55784;50.734;7.086;2023-03-21T14:03:44;14.82;78.31
68801;SHT31;55784;50.734;7.086;2023-03-21T14:06:11;14.56;79.31
68801;SHT31;55784;50.734;7.086;2023-03-21T14:08:43;14.72;78.80
68801;SHT31;55784;50.734;7.086;2023-03-21T14:11:13;14.70;78.60
68801;SHT31;55784;50.734;7.086;2023-03-21T14:13:42;14.78;79.29
68801;SHT31;55784;50.734;7.086;2023-03-21T14:16:17;14.94;78.30
68801;SHT31;55784;50.734;7.086;2023-03-21T14:18:51;14.84;77.94
68801;SHT31;55784;50.734;7.086;2023-03-21T14:21:48;14.99;77.38
68801;SHT31;55784;50.734;7.086;2023-03-21T14:24:16;15.05;77.60
68801;SHT31;55784;50.734;7.086;2023-03-21T14:26:45;15.06;76.99
68801;SHT31;55784;50.734;7.086;2023-03-21T14:29:31;14.92;77.33
68801;SHT31;55784;50.734;7.086;2023-03-21T14:31:58;14.99;77.96
68801;SHT31;55784;50.734;7.086;2023-03-21T14:34:29;14.85;77.47
68801;SHT31;55784;50.734;7.086;2023-03-21T14:36:56;14.96;77.64
68801;SHT31;55784;50.734;7.086;2023-03-21T14:39:25;14.85;77.73
68801;SHT31;55784;50.734;7.086;2023-03-21T14:41:59;14.84;77.90
68801;SHT31;55784;50.734;7.086;2023-03-21T14:44:32;14.84;77.56
68801;SHT31;55784;50.734;7.086;2023-03-21T14:47:06;14.88;77.81
68801;SHT31;55784;50.734;7.086;2023-03-21T14:49:33;14.75;77.88
68801;SHT31;55784;50.734;7.086;2023-03-21T14:52:02;14.96;77.42
68801;SHT31;55784;50.734;7.086;2023-03-21T14:54:28;15.02;77.38
68801;SHT31;55784;50.734;7.086;2023-03-21T14:57:00;15.11;77.38
68801;SHT31;55784;50.734;7.086;2023-03-21T14:59:31;15.11;77.22
68801;SHT31;55784;50.734;7.086;2023-03-21T15:02:04;15.16;77.21
68801;SHT31;55784;50.734;7.086;2023-03-21T15:04:31;15.26;76.90
68801;SHT31;55784;50.734;7.086;2023-03-21T15:07:01;15.28;77.06
68801;SHT31;55784;50.734;7.086;2023-03-21T15:09:31;15.39;76.67
68801;SHT31;55784;50.734;7.086;2023-03-21T15:11:58;15.42;75.81
68801;SHT31;55784;50.734;7.086;2023-03-21T15:14:32;15.55;76.54
68801;SHT31;55784;50.734;7.086;2023-03-21T15:16:59;15.46;77.17
68801;SHT31;55784;50.734;7.086;2023-03-21T15:19:36;15.57;76.27
68801;SHT31;55784;50.734;7.086;2023-03-21T15:22:38;15.56;75.48
68801;SHT31;55784;50.734;7.086;2023-03-21T15:25:06;15.60;75.87
68801;SHT31;55784;50.734;7.086;2023-03-21T15:27:37;15.66;75.66
68801;SHT31;55784;50.734;7.086;2023-03-21T15:30:03;15.71;74.74
68801;SHT31;55784;50.734;7.086;2023-03-21T15:32:29;15.65;74.61
68801;SHT31;55784;50.734;7.086;2023-03-21T15:35:06;15.63;74.49
68801;SHT31;55784;50.734;7.086;2023-03-21T15:37:35;15.62;74.04
68801;SHT31;55784;50.734;7.086;2023-03-21T15:40:27;15.36;74.16
68801;SHT31;55784;50.734;7.086;2023-03-21T15:43:13;15.35;74.37
68801;SHT31;55784;50.734;7.086;2023-03-21T15:45:53;15.29;75.19
68801;SHT31;55784;50.734;7.086;2023-03-21T15:48:27;15.11;75.02
68801;SHT31;55784;50.734;7.086;2023-03-21T15:51:04;15.04;75.10
68801;SHT31;55784;50.734;7.086;2023-03-21T15:53:32;14.99;75.40
68801;SHT31;55784;50.734;7.086;2023-03-21T15:55:59;14.88;75.31
68801;SHT31;55784;50.734;7.086;2023-03-21T15:58:41;14.99;75.58
68801;SHT31;55784;50.734;7.086;2023-03-21T16:01:13;15.12;75.17
68801;SHT31;55784;50.734;7.086;2023-03-21T16:04:10;15.24;74.88
68801;SHT31;55784;50.734;7.086;2023-03-21T16:06:38;15.28;74.34
68801;SHT31;55784;50.734;7.086;2023-03-21T16:11:40;15.05;73.42
68801;SHT31;55784;50.734;7.086;2023-03-21T16:14:06;15.05;73.66
68801;SHT31;55784;50.734;7.086;2023-03-21T16:16:32;15.08;74.10
68801;SHT31;55784;50.734;7.086;2023-03-21T16:18:58;15.02;73.30
68801;SHT31;55784;50.734;7.086;2023-03-21T16:21:26;15.02;73.58
68801;SHT31;55784;50.734;7.086;2023-03-21T16:23:53;14.95;73.73
68801;SHT31;55784;50.734;7.086;2023-03-21T16:26:26;14.84;73.69
68801;SHT31;55784;50.734;7.086;2023-03-21T16:28:52;14.80;73.98
68801;SHT31;55784;50.734;7.086;2023-03-21T16:31:23;14.71;74.52
68801;SHT31;55784;50.734;7.086;2023-03-21T16:33:49;14.64;74.53
68801;SHT31;55784;50.734;7.086;2023-03-21T16:36:24;14.59;74.92
68801;SHT31;55784;50.734;7.086;2023-03-21T16:38:51;14.51;75.16
68801;SHT31;55784;50.734;7.086;2023-03-21T16:41:18;14.43;74.88
68801;SHT31;55784;50.734;7.086;2023-03-21T16:43:44;14.51;74.81
68801;SHT31;55784;50.734;7.086;2023-03-21T16:46:17;14.99;73.39
68801;SHT31;55784;50.734;7.086;2023-03-21T16:48:48;15.04;72.99
68801;SHT31;55784;50.734;7.086;2023-03-21T16:51:16;14.96;72.80
68801;SHT31;55784;50.734;7.086;2023-03-21T16:53:45;14.67;73.42
68801;SHT31;55784;50.734;7.086;2023-03-21T16:56:18;14.38;73.96
68801;SHT31;55784;50.734;7.086;2023-03-21T16:58:47;14.17;75.16
68801;SHT31;55784;50.734;7.086;2023-03-21T17:01:14;14.05;74.99
68801;SHT31;55784;50.734;7.086;2023-03-21T17:03:40;13.96;74.64